Campanya Meteocatpedra
Centenari de l'SMC: 100 anys mirant el cel

Dades de l'estació automàtica la Quar

?
?

Resum diari

23:00 TU
Dades diàries de l'estació meteorològica
Temperatura mitjana 12.6 °C
Temperatura màxima 20.2 °C 13:03 TU
Temperatura mínima 8.8 °C 23:00 TU
Humitat relativa mitjana 91%
Precipitació acumulada 9.9 mm
Ratxa màxima del vent (10 m) 34.2 km/h - 7º 16:40 TU
Pressió atmosfèrica mitjana 1019.2 hPa

El tram horari està expressat en Temps Universal (TU). Cal sumar una hora en horari d'hivern i dues en horari d'estiu per passar a l'hora oficial.

la Quar

Metadades estació meteorològica
Municipi La Quar
Comarca Berguedà
Altitud 873 m
Data alta 13.03.1996
Estat actual Operativa
Dades de període
Període
TU
TM
°C
TX
°C
TN
°C
HRM
%
PPT
mm
VVM (10 m)
km/h
DVM (10 m)
graus
VVX (10 m)
km/h
PM
hPa
00:00 - 00:30 11.4 11.4 11.3 94 0.0 1.8 338 4.7 1020.1
00:30 - 01:00 11.5 11.6 11.4 94 0.0 3.2 1 7.6 1019.7
01:00 - 01:30 11.7 11.9 11.5 94 0.0 2.5 1 5.8 1019.4
01:30 - 02:00 12.1 12.2 11.7 93 0.0 2.9 9 6.1 1019.0
02:00 - 02:30 11.8 12.0 11.3 94 0.0 2.2 353 5.8 1018.9
02:30 - 03:00 11.3 11.5 11.2 96 0.0 1.8 322 4.0 1019.0
03:00 - 03:30 10.9 11.2 10.7 97 0.0 2.2 301 6.1 1019.1
03:30 - 04:00 10.8 10.9 10.7 98 0.0 2.2 3 7.2 1019.0
04:00 - 04:30 10.5 10.6 10.3 98 0.0 1.1 342 5.0 1019.1
04:30 - 05:00 10.4 10.6 10.3 99 0.0 2.5 5 5.4 1019.2
05:00 - 05:30 10.7 10.9 10.4 99 0.0 0.7 5 2.9 1019.2
05:30 - 06:00 10.2 10.4 9.9 99 0.0 2.2 20 8.6 1019.5
06:00 - 06:30 10.3 10.9 9.9 100 0.0 5.8 55 9.7 1019.7
06:30 - 07:00 11.3 11.6 10.9 99 0.0 6.8 59 12.2 1019.4
07:00 - 07:30 11.9 12.2 11.5 97 0.0 2.9 72 10.1 1019.4
07:30 - 08:00 12.1 12.4 12.0 95 0.0 1.4 204 4.0 1019.6
08:00 - 08:30 12.8 13.1 12.3 93 0.0 4.3 62 12.2 1019.3
08:30 - 09:00 13.4 14.4 13.1 89 0.0 5.0 51 11.9 1019.1
09:00 - 09:30 14.3 14.6 14.0 86 0.0 2.9 202 8.3 1018.7
09:30 - 10:00 14.8 15.4 14.2 85 0.0 4.0 199 7.9 1018.5
10:00 - 10:30 15.8 16.5 15.1 80 0.0 4.0 193 9.4 1018.2
10:30 - 11:00 16.1 16.9 15.6 76 0.0 4.0 204 9.4 1018.0
11:00 - 11:30 17.0 18.0 16.2 74 0.0 6.5 252 16.2 1017.2
11:30 - 12:00 17.6 18.4 16.7 71 0.0 7.2 233 16.6 1017.0
12:00 - 12:30 17.7 19.4 16.4 69 0.0 7.9 221 18.4 1016.9
12:30 - 13:00 18.6 19.9 18.0 64 0.0 6.1 207 17.6 1016.2
13:00 - 13:30 19.3 20.2 18.2 62 0.0 5.4 211 15.5 1015.8
13:30 - 14:00 17.6 18.2 17.4 67 0.0 6.1 211 14.0 1016.3
14:00 - 14:30 18.0 20.0 17.3 66 0.0 5.8 211 15.5 1015.9
14:30 - 15:00 18.1 19.5 17.0 64 0.0 3.6 218 14.4 1015.9
15:00 - 15:30 14.6 16.9 13.1 89 3.3 5.4 7 18.0 1016.9
15:30 - 16:00 12.9 13.1 12.5 99 0.6 5.8 22 14.0 1017.7
16:00 - 16:30 11.7 12.4 11.3 98 1.5 11.2 353 25.9 1018.3
16:30 - 17:00 11.6 12.2 11.2 100 4.5 14.0 354 34.2 1018.7
17:00 - 17:30 11.2 11.4 11.0 100 0.0 11.9 6 23.8 1018.9
17:30 - 18:00 11.3 11.5 11.1 100 0.0 5.4 54 22.0 1019.7
18:00 - 18:30 10.9 11.4 10.8 100 0.0 15.1 56 30.2 1020.1
18:30 - 19:00 10.7 10.8 10.5 100 0.0 10.1 61 19.8 1020.8
19:00 - 19:30 10.5 10.7 10.4 100 0.0 9.7 58 16.9 1021.3
19:30 - 20:00 10.4 10.4 10.3 100 0.0 9.7 58 14.8 1021.9
20:00 - 20:30 10.3 10.3 10.2 100 0.0 12.6 52 20.9 1022.1
20:30 - 21:00 10.1 10.2 10.0 100 0.0 5.4 35 15.1 1022.2
21:00 - 21:30 9.8 10.0 9.5 100 0.0 1.8 24 6.5 1022.3
21:30 - 22:00 9.6 9.8 9.4 100 0.0 2.5 19 7.9 1022.4
22:00 - 22:30 9.5 9.7 9.3 100 0.0 1.8 346 6.8 1022.4
22:30 - 23:00 9.1 9.4 8.8 100 0.0 3.6 5 6.5 1022.6
23:00 - 23:30 8.9 9.2 8.8 100 0.0 4.3 355 9.0 1022.7

Les dades en taronja només han passat un control de qualitat automàtic. Resta pendent la seva validació definitiva.